createdAt,value
2023-02-03T00:02:23.441Z,101201.19
2023-02-03T00:05:26.369Z,101210.09
2023-02-03T00:08:29.074Z,101201.88
2023-02-03T00:11:31.923Z,101199.56
2023-02-03T00:14:34.435Z,101210.34
2023-02-03T00:17:37.241Z,101210.16
2023-02-03T00:20:39.803Z,101220.16
2023-02-03T00:23:43.109Z,101232.00
2023-02-03T00:26:45.629Z,101237.69
2023-02-03T00:29:48.479Z,101241.31
2023-02-03T00:32:50.950Z,101241.56
2023-02-03T00:35:53.781Z,101245.31
2023-02-03T00:38:56.350Z,101249.25
2023-02-03T00:41:59.192Z,101238.78
2023-02-03T00:45:02.325Z,101244.16
2023-02-03T00:48:06.121Z,101251.53
2023-02-03T00:51:08.560Z,101249.78
2023-02-03T00:54:11.438Z,101249.00
2023-02-03T00:57:13.935Z,101250.63
2023-02-03T01:00:17.715Z,101254.81
2023-02-03T01:03:24.286Z,101249.84
2023-02-03T01:06:27.387Z,101264.06
2023-02-03T01:09:34.452Z,101257.06
2023-02-03T01:12:37.401Z,101253.00
2023-02-03T01:15:46.232Z,101255.66
2023-02-03T01:18:49.407Z,101250.41
2023-02-03T01:21:52.081Z,101254.28
2023-02-03T01:24:54.936Z,101259.91
2023-02-03T01:27:57.550Z,101250.34
2023-02-03T01:31:10.846Z,101253.38
2023-02-03T01:34:16.483Z,101242.53
2023-02-03T01:37:19.401Z,101245.06
2023-02-03T01:40:21.989Z,101243.94
2023-02-03T01:43:32.988Z,101242.41
2023-02-03T01:46:37.614Z,101242.72
2023-02-03T01:49:42.817Z,101234.00
2023-02-03T01:52:49.070Z,101236.13
2023-02-03T01:55:52.780Z,101233.22
2023-02-03T01:58:55.296Z,101237.75
2023-02-03T02:01:59.283Z,101245.06
2023-02-03T02:05:10.532Z,101245.12
2023-02-03T02:08:14.185Z,101237.75
2023-02-03T02:11:22.027Z,101239.56
2023-02-03T02:14:24.604Z,101236.97
2023-02-03T02:17:40.273Z,101237.53
2023-02-03T02:21:00.509Z,101254.25
2023-02-03T02:24:10.904Z,101248.34
2023-02-03T02:27:33.628Z,101240.97
2023-02-03T02:30:51.937Z,101242.34
2023-02-03T02:33:58.443Z,101235.09
2023-02-03T02:37:25.845Z,101237.37
2023-02-03T02:40:47.482Z,101233.75
2023-02-03T02:44:18.423Z,101231.53
2023-02-03T02:47:22.774Z,101233.06
2023-02-03T02:50:28.947Z,101229.94
2023-02-03T02:53:35.679Z,101221.25
2023-02-03T02:56:41.135Z,101222.88
2023-02-03T02:59:45.608Z,101215.09
2023-02-03T03:02:48.752Z,101218.94
2023-02-03T03:05:55.761Z,101214.56
2023-02-03T03:09:04.597Z,101219.00
2023-02-03T03:12:08.938Z,101208.50
2023-02-03T03:15:15.307Z,101208.22
2023-02-03T03:18:20.805Z,101212.31
2023-02-03T03:21:28.252Z,101203.56
2023-02-03T03:24:42.275Z,101205.72
2023-02-03T03:27:50.345Z,101198.88
2023-02-03T03:30:53.368Z,101200.50
2023-02-03T03:33:56.537Z,101206.97
2023-02-03T03:37:16.404Z,101198.47
2023-02-03T03:40:24.474Z,101195.59
2023-02-03T03:43:30.550Z,101200.66
2023-02-03T03:46:41.677Z,101189.94
2023-02-03T03:49:46.033Z,101193.69
2023-02-03T03:52:49.715Z,101191.97
2023-02-03T03:55:53.081Z,101186.97
2023-02-03T03:58:56.510Z,101174.72
2023-02-03T04:02:04.458Z,101177.31
2023-02-03T04:05:10.337Z,101179.06
2023-02-03T04:08:12.871Z,101188.97
2023-02-03T04:11:35.631Z,101196.13
2023-02-03T04:14:38.986Z,101195.34
2023-02-03T04:17:41.913Z,101193.72
2023-02-03T04:20:44.531Z,101190.16
2023-02-03T04:23:47.358Z,101195.59
2023-02-03T04:26:49.824Z,101185.63
2023-02-03T04:29:52.605Z,101170.31
2023-02-03T04:32:55.178Z,101170.28
2023-02-03T04:35:57.975Z,101169.31
2023-02-03T04:39:00.573Z,101162.00
2023-02-03T04:42:03.640Z,101168.09
2023-02-03T04:45:07.907Z,101164.50
2023-02-03T04:48:10.683Z,101164.59
2023-02-03T04:51:13.320Z,101163.75
2023-02-03T04:54:16.071Z,101162.06
2023-02-03T04:57:18.649Z,101156.91
2023-02-03T05:00:21.492Z,101147.97
2023-02-03T05:03:26.170Z,101151.78
2023-02-03T05:06:30.068Z,101143.75
2023-02-03T05:09:32.574Z,101130.06
2023-02-03T05:12:35.408Z,101140.25
2023-02-03T05:15:37.951Z,101095.19
2023-02-03T05:18:40.731Z,101135.75
2023-02-03T05:21:43.465Z,101137.53
2023-02-03T05:24:46.500Z,101130.38
2023-02-03T05:27:49.044Z,101123.22
2023-02-03T05:30:51.992Z,101134.66
2023-02-03T05:33:54.795Z,101133.69
2023-02-03T05:36:57.583Z,101130.03
2023-02-03T05:40:20.095Z,101104.91
2023-02-03T05:43:22.868Z,101120.31
2023-02-03T05:46:25.403Z,101116.75
2023-02-03T05:49:28.475Z,101116.75
2023-02-03T05:52:30.981Z,101121.16
2023-02-03T05:55:34.220Z,101120.38
2023-02-03T05:58:36.784Z,101117.72
2023-02-03T06:01:39.580Z,101111.47
2023-02-03T06:04:42.643Z,101118.50
2023-02-03T06:07:45.204Z,101099.97
2023-02-03T06:10:48.216Z,101096.34
2023-02-03T06:13:51.128Z,101072.13
2023-02-03T06:16:54.371Z,101084.87
2023-02-03T06:19:57.057Z,101088.56
2023-02-03T06:22:59.869Z,101083.19
2023-02-03T06:26:02.439Z,101079.72
2023-02-03T06:29:05.321Z,101079.75
2023-02-03T06:32:08.895Z,101074.56
2023-02-03T06:35:11.996Z,101074.69
2023-02-03T06:38:14.762Z,101073.00
2023-02-03T06:41:18.156Z,101074.06
2023-02-03T06:44:21.092Z,101042.97
2023-02-03T06:47:24.052Z,101056.94
2023-02-03T06:50:27.042Z,101063.38
2023-02-03T06:53:30.343Z,101056.44
2023-02-03T06:56:33.048Z,101076.00
2023-02-03T06:59:36.129Z,101085.72
2023-02-03T07:02:39.020Z,101077.75
2023-02-03T07:05:42.085Z,101079.28
2023-02-03T07:08:44.870Z,101072.41
2023-02-03T07:11:48.151Z,101057.78
2023-02-03T07:14:50.980Z,101082.06
2023-02-03T07:17:54.972Z,101076.53
2023-02-03T07:20:57.785Z,101082.62
2023-02-03T07:24:02.371Z,101076.97
2023-02-03T07:27:05.113Z,101085.09
2023-02-03T07:30:09.438Z,101061.31
2023-02-03T07:33:11.991Z,101078.91
2023-02-03T07:36:15.884Z,101062.25
2023-02-03T07:39:18.454Z,101079.84
2023-02-03T07:42:21.246Z,101077.41
2023-02-03T07:45:25.831Z,101067.19
2023-02-03T07:48:28.680Z,101082.94
2023-02-03T07:51:31.808Z,101077.41
2023-02-03T07:54:34.739Z,101066.56
2023-02-03T07:57:37.364Z,101075.22
2023-02-03T08:00:40.194Z,101073.28
2023-02-03T08:03:44.072Z,101077.69
2023-02-03T08:06:46.691Z,101065.25
2023-02-03T08:09:49.692Z,101060.81
2023-02-03T08:12:56.054Z,101061.03
2023-02-03T08:15:59.054Z,101062.62
2023-02-03T08:19:02.110Z,101041.50
2023-02-03T08:22:05.164Z,101028.25
2023-02-03T08:25:08.418Z,101028.91
2023-02-03T08:28:11.496Z,101037.81
2023-02-03T08:31:14.474Z,101019.75
2023-02-03T08:34:17.590Z,101031.69
2023-02-03T08:37:23.126Z,101010.84
2023-02-03T08:40:26.723Z,101023.87
2023-02-03T08:43:30.117Z,101020.34
2023-02-03T08:46:33.536Z,101006.31
2023-02-03T08:49:39.626Z,100990.03
2023-02-03T08:52:42.810Z,100975.38
2023-02-03T08:55:45.573Z,100971.16
2023-02-03T08:58:48.856Z,100947.53
2023-02-03T09:01:52.660Z,100985.53
2023-02-03T09:04:56.126Z,100965.25
2023-02-03T09:07:59.089Z,100931.50
2023-02-03T09:11:02.574Z,100948.19
2023-02-03T09:14:07.408Z,100936.75
2023-02-03T09:17:12.043Z,100935.78
2023-02-03T09:20:15.483Z,100908.41
2023-02-03T09:23:19.255Z,100914.53
2023-02-03T09:26:22.566Z,100917.97
2023-02-03T09:29:26.600Z,100910.09
2023-02-03T09:32:29.696Z,100912.13
2023-02-03T09:35:33.449Z,100907.84
2023-02-03T09:38:37.390Z,100899.09
2023-02-03T09:42:05.468Z,100910.09
2023-02-03T09:45:18.405Z,100889.25
2023-02-03T09:48:25.445Z,100896.56
2023-02-03T09:51:36.640Z,100886.81
2023-02-03T09:54:52.152Z,100888.81
2023-02-03T09:57:57.587Z,100880.06
2023-02-03T10:01:06.674Z,100876.66
2023-02-03T10:04:27.928Z,100865.94
2023-02-03T10:08:02.331Z,100867.87
2023-02-03T10:11:23.204Z,100859.00
2023-02-03T10:15:03.358Z,100826.72
2023-02-03T10:18:19.705Z,100835.09
2023-02-03T10:21:42.194Z,100823.87
2023-02-03T10:24:53.100Z,100829.53
2023-02-03T10:27:58.642Z,100827.81
2023-02-03T10:31:08.935Z,100820.09
2023-02-03T10:34:14.723Z,100814.78
2023-02-03T10:37:30.016Z,100801.62
2023-02-03T10:40:33.262Z,100804.38
2023-02-03T10:43:48.757Z,100759.72
2023-02-03T10:46:51.474Z,100773.91
2023-02-03T10:49:57.065Z,100782.84
2023-02-03T10:53:18.416Z,100773.22
2023-02-03T10:56:25.566Z,100775.09
2023-02-03T10:59:31.000Z,100763.13
2023-02-03T11:02:34.462Z,100761.53
2023-02-03T11:05:37.416Z,100755.31
2023-02-03T11:08:43.753Z,100745.50
2023-02-03T11:11:46.631Z,100738.37
2023-02-03T11:14:51.771Z,100723.16
2023-02-03T11:17:54.777Z,100714.97
2023-02-03T11:20:59.058Z,100723.25
2023-02-03T11:24:05.593Z,100718.84
2023-02-03T11:27:14.958Z,100720.47
2023-02-03T11:30:17.949Z,100702.91
2023-02-03T11:33:24.975Z,100692.47
2023-02-03T11:36:29.640Z,100694.41
2023-02-03T11:39:35.954Z,100667.63
2023-02-03T11:42:42.995Z,100657.28
2023-02-03T11:45:48.955Z,100663.13
2023-02-03T11:49:28.549Z,100666.06
2023-02-03T11:52:48.524Z,100651.31
2023-02-03T11:56:08.941Z,100659.50
2023-02-03T11:59:37.145Z,100643.69
2023-02-03T12:02:55.358Z,100641.03
2023-02-03T12:06:12.083Z,100631.22
2023-02-03T12:09:46.532Z,100624.19
2023-02-03T12:13:06.288Z,100609.97
2023-02-03T12:16:18.538Z,100603.78
2023-02-03T12:19:52.499Z,100591.41
2023-02-03T12:23:12.248Z,100574.69
2023-02-03T12:26:39.515Z,100564.16
2023-02-03T12:29:45.663Z,100534.78
2023-02-03T12:32:56.041Z,100524.44
2023-02-03T12:36:15.628Z,100519.03
2023-02-03T12:39:23.806Z,100496.72
2023-02-03T12:42:33.913Z,100457.53
2023-02-03T12:45:38.341Z,100486.72
2023-02-03T12:49:02.882Z,100494.06
2023-02-03T12:52:17.821Z,100481.72
2023-02-03T12:55:35.153Z,100479.94
2023-02-03T12:58:46.210Z,100479.97
2023-02-03T13:01:59.135Z,100463.06
2023-02-03T13:05:25.652Z,100450.66
2023-02-03T13:08:38.141Z,100437.13
2023-02-03T13:12:06.517Z,100411.47
2023-02-03T13:15:21.277Z,100411.31
2023-02-03T13:18:34.916Z,100395.41
2023-02-03T13:21:37.764Z,100388.31
2023-02-03T13:24:48.396Z,100380.09
2023-02-03T13:28:06.189Z,100378.25
2023-02-03T13:31:09.503Z,100347.06
2023-02-03T13:34:34.260Z,100370.16
2023-02-03T13:37:52.948Z,100348.97
2023-02-03T13:41:04.600Z,100348.91
2023-02-03T13:44:13.717Z,100343.62
2023-02-03T13:47:28.941Z,100341.16
2023-02-03T13:50:32.114Z,100309.19
2023-02-03T13:53:40.401Z,100322.63
2023-02-03T13:56:54.323Z,100304.75
2023-02-03T13:59:57.195Z,100315.47
2023-02-03T14:03:00.417Z,100315.44
2023-02-03T14:06:03.885Z,100283.25
2023-02-03T14:09:27.481Z,100318.13
2023-02-03T14:12:30.605Z,100319.94
2023-02-03T14:15:34.123Z,100337.78
2023-02-03T14:18:45.329Z,100339.56
2023-02-03T14:22:02.619Z,100344.00
2023-02-03T14:25:07.355Z,100344.81
2023-02-03T14:28:19.763Z,100343.06
2023-02-03T14:31:26.655Z,100321.87
2023-02-03T14:34:34.672Z,100307.34
2023-02-03T14:37:37.992Z,100307.34
2023-02-03T14:41:03.215Z,100296.75
2023-02-03T14:44:09.319Z,100309.25
2023-02-03T14:47:23.509Z,100321.59
2023-02-03T14:50:37.408Z,100318.06
2023-02-03T14:54:02.851Z,100288.59
2023-02-03T14:57:10.814Z,100300.06
2023-02-03T15:00:19.797Z,100282.25
2023-02-03T15:03:25.644Z,100263.59
2023-02-03T15:06:42.787Z,100256.50
2023-02-03T15:09:46.143Z,100235.06
2023-02-03T15:12:58.143Z,100238.69
2023-02-03T15:16:05.112Z,100226.97
2023-02-03T15:19:19.497Z,100226.13
2023-02-03T15:22:25.164Z,100223.44
2023-02-03T15:25:30.834Z,100223.44
2023-02-03T15:28:33.930Z,100215.56
2023-02-03T15:31:43.898Z,100233.31
2023-02-03T15:34:49.196Z,100224.38
2023-02-03T15:37:58.637Z,100203.09
2023-02-03T15:41:02.625Z,100207.53
2023-02-03T15:44:12.515Z,100209.38
2023-02-03T15:47:30.673Z,100183.56
2023-02-03T15:50:45.199Z,100184.56
2023-02-03T15:53:58.906Z,100182.81
2023-02-03T15:57:05.706Z,100173.94
2023-02-03T16:00:12.807Z,100165.03
2023-02-03T16:03:43.629Z,100142.78
2023-02-03T16:06:48.804Z,100149.97
2023-02-03T16:09:59.234Z,100133.97
2023-02-03T16:13:33.503Z,100128.66
2023-02-03T16:17:03.886Z,100126.91
2023-02-03T16:20:16.241Z,100122.44
2023-02-03T16:23:21.984Z,100096.66
2023-02-03T16:26:27.349Z,100112.69
2023-02-03T16:29:49.069Z,100131.38
2023-02-03T16:33:27.861Z,100126.06
2023-02-03T16:36:49.693Z,100117.12
2023-02-03T16:40:11.037Z,100108.25
2023-02-03T16:43:34.125Z,100098.47
2023-02-03T16:46:55.814Z,100118.94
2023-02-03T16:50:26.430Z,100130.50
2023-02-03T16:53:40.400Z,100118.94
2023-02-03T16:56:43.523Z,100108.31
2023-02-03T16:59:46.166Z,100081.56
2023-02-03T17:02:52.932Z,100099.31
2023-02-03T17:05:56.325Z,100115.44
2023-02-03T17:08:59.647Z,100124.38
2023-02-03T17:12:03.274Z,100137.75
2023-02-03T17:15:07.162Z,100124.34
2023-02-03T17:18:12.636Z,100142.19
2023-02-03T17:21:18.375Z,100134.16
2023-02-03T17:24:21.215Z,100137.72
2023-02-03T17:27:24.350Z,100116.25
2023-02-03T17:30:28.403Z,100126.06
2023-02-03T17:33:32.620Z,100126.94
2023-02-03T17:36:35.507Z,100121.59
2023-02-03T17:56:08.834Z,100102.94
2023-02-03T17:59:11.956Z,100097.59
2023-02-03T18:02:14.636Z,100090.47
2023-02-03T18:05:18.790Z,100105.63
2023-02-03T18:08:25.397Z,100121.66
2023-02-03T18:11:30.220Z,100146.63
2023-02-03T18:14:33.143Z,100153.78
2023-02-03T18:17:36.127Z,100181.41
2023-02-03T18:20:38.784Z,100178.69
2023-02-03T18:23:42.329Z,100174.12
2023-02-03T18:26:52.311Z,100187.41
2023-02-03T18:29:55.281Z,100185.63
2023-02-03T18:32:59.999Z,100169.56
2023-02-03T18:36:04.332Z,100176.72
2023-02-03T18:39:08.221Z,100160.53
2023-02-03T18:42:12.605Z,100244.28
2023-02-03T18:45:15.466Z,100257.44
2023-02-03T18:48:18.659Z,100245.62
2023-02-03T18:51:22.403Z,100242.81
2023-02-03T18:54:25.777Z,100245.47
2023-02-03T18:57:28.709Z,100236.56
2023-02-03T19:00:32.428Z,100267.69
2023-02-03T19:03:37.958Z,100259.69
2023-02-03T19:06:45.582Z,100262.38
2023-02-03T19:09:48.642Z,100277.50
2023-02-03T19:12:52.197Z,100244.59
2023-02-03T19:15:55.379Z,100277.66
2023-02-03T19:18:58.862Z,100239.31
2023-02-03T19:22:02.354Z,100274.97
2023-02-03T19:25:06.075Z,100255.16
2023-02-03T19:28:14.354Z,100246.22
2023-02-03T19:31:21.391Z,100250.59
2023-02-03T19:34:25.033Z,100266.66
2023-02-03T19:37:29.465Z,100226.66
2023-02-03T19:40:32.738Z,100248.97
2023-02-03T19:43:36.386Z,100231.84
2023-02-03T19:46:39.470Z,100254.16
2023-02-03T19:49:42.782Z,100259.41
2023-02-03T19:52:47.513Z,100263.81
2023-02-03T19:55:52.052Z,100271.81
2023-02-03T19:58:54.756Z,100284.19
2023-02-03T20:02:04.081Z,100277.03
2023-02-03T20:05:17.885Z,100273.50
2023-02-03T20:08:20.963Z,100269.09
2023-02-03T20:11:24.403Z,100252.19
2023-02-03T20:14:27.915Z,100250.50
2023-02-03T20:17:31.211Z,100220.19
2023-02-03T20:20:35.529Z,100245.31
2023-02-03T20:23:39.796Z,100245.44
2023-02-03T20:26:42.428Z,100245.56
2023-02-03T20:29:45.906Z,100241.97
2023-02-03T20:32:49.059Z,100234.78
2023-02-03T20:35:52.643Z,100227.75
2023-02-03T20:38:55.573Z,100236.78
2023-02-03T20:41:59.595Z,100243.00
2023-02-03T20:45:10.719Z,100234.09
2023-02-03T20:48:14.656Z,100242.91
2023-02-03T20:51:18.768Z,100232.25
2023-02-03T20:54:22.900Z,100235.97
2023-02-03T20:57:26.424Z,100223.50
2023-02-03T21:00:29.881Z,100236.03
2023-02-03T21:03:51.836Z,100224.53
2023-02-03T21:06:55.960Z,100225.34
2023-02-03T21:10:00.317Z,100231.41
2023-02-03T21:13:17.632Z,100236.56
2023-02-03T21:16:22.984Z,100209.78
2023-02-03T21:19:30.593Z,100237.44
2023-02-03T21:22:33.682Z,100235.53
2023-02-03T21:25:37.030Z,100216.66
2023-02-03T21:28:39.694Z,100242.59
2023-02-03T21:31:43.586Z,100238.97
2023-02-03T21:34:48.132Z,100220.16
2023-02-03T21:38:02.291Z,100227.25
2023-02-03T21:41:15.280Z,100241.56
2023-02-03T21:44:31.695Z,100240.56
2023-02-03T21:47:34.599Z,100227.97
2023-02-03T21:50:41.565Z,100249.56
2023-02-03T21:53:50.018Z,100250.41
2023-02-03T21:56:54.344Z,100253.97
2023-02-03T21:59:57.201Z,100276.16
2023-02-03T22:03:01.004Z,100269.94
2023-02-03T22:06:10.030Z,100283.31
2023-02-03T22:09:20.680Z,100298.44
2023-02-03T22:12:24.807Z,100296.59
2023-02-03T22:15:28.692Z,100282.28
2023-02-03T22:18:31.898Z,100283.19
2023-02-03T22:21:34.876Z,100290.47
2023-02-03T22:24:38.290Z,100259.47
2023-02-03T22:27:41.073Z,100277.41
2023-02-03T22:30:52.281Z,100286.47
2023-02-03T22:33:55.838Z,100269.53
2023-02-03T22:36:58.781Z,100271.41
2023-02-03T22:40:01.781Z,100283.00
2023-02-03T22:43:04.877Z,100267.91
2023-02-03T22:46:08.182Z,100278.63
2023-02-03T22:49:11.521Z,100283.03
2023-02-03T22:52:14.435Z,100273.06
2023-02-03T22:55:17.485Z,100277.53
2023-02-03T22:58:20.478Z,100269.56
2023-02-03T23:01:23.480Z,100268.72
2023-02-03T23:04:26.354Z,100247.41
2023-02-03T23:07:29.364Z,100253.63
2023-02-03T23:10:32.495Z,100222.31
2023-02-03T23:13:35.645Z,100228.62
2023-02-03T23:16:38.528Z,100245.75
2023-02-03T23:19:41.889Z,100225.19
2023-02-03T23:22:45.002Z,100226.09
2023-02-03T23:25:47.930Z,100244.94
2023-02-03T23:28:50.565Z,100235.16
2023-02-03T23:31:53.604Z,100237.84
2023-02-03T23:35:14.639Z,100232.47
2023-02-03T23:38:18.139Z,100235.16
2023-02-03T23:41:20.811Z,100230.75
2023-02-03T23:44:24.186Z,100235.25
2023-02-03T23:47:26.900Z,100241.41
2023-02-03T23:50:30.156Z,100221.78
2023-02-03T23:53:33.073Z,100241.44
2023-02-03T23:56:36.219Z,100238.94
2023-02-03T23:59:39.115Z,100249.59
